Time,TemperatureF,DewpointF,PressureIn,WindDirection,WindDirectionDegrees,WindSpeedMPH,WindSpeedGustMPH,Humidity,HourlyPrecipIn,Conditions,Clouds,dailyrainin,SoftwareType,DateUTC
2013-05-12 00:03:00,54.3,51.1,30.06,NE,56,0.0,0.0,89,0.00,,,0.00,WeatherTracker,2013-05-12 07:03:00,
2013-05-12 00:08:00,54.3,51.1,30.06,NE,56,0.0,0.0,89,0.00,,,0.00,WeatherTracker,2013-05-12 07:08:00,
2013-05-12 00:13:00,54.3,51.4,30.06,NE,56,0.0,0.0,90,0.00,,,0.00,WeatherTracker,2013-05-12 07:13:00,
2013-05-12 00:18:00,54.2,51.3,30.06,NE,56,0.0,0.0,90,0.00,,,0.00,WeatherTracker,2013-05-12 07:18:00,
2013-05-12 00:23:00,54.3,51.4,30.06,NE,56,0.0,0.0,90,0.00,,,0.00,WeatherTracker,2013-05-12 07:23:00,
2013-05-12 00:28:00,54.3,51.4,30.06,NE,56,0.0,0.0,90,0.00,,,0.00,WeatherTracker,2013-05-12 07:28:00,
2013-05-12 00:33:00,54.2,51.3,30.06,NE,56,0.0,0.0,90,0.00,,,0.00,WeatherTracker,2013-05-12 07:33:00,
2013-05-12 00:39:00,54.2,51.3,30.06,NE,56,0.0,0.0,90,0.00,,,0.00,WeatherTracker,2013-05-12 07:39:00,
2013-05-12 00:44:00,54.1,51.2,30.06,NE,56,0.0,0.0,90,0.00,,,0.00,WeatherTracker,2013-05-12 07:44:00,
2013-05-12 00:49:00,54.1,51.2,30.06,NE,56,0.0,0.0,90,0.00,,,0.00,WeatherTracker,2013-05-12 07:49:00,
2013-05-12 00:54:00,54.0,51.1,30.06,NE,56,0.0,0.0,90,0.00,,,0.00,WeatherTracker,2013-05-12 07:54:00,
2013-05-12 00:59:00,54.2,51.3,30.07,SSW,213,0.0,0.0,90,0.00,,,0.00,WeatherTracker,2013-05-12 07:59:00,
2013-05-12 01:04:00,54.0,51.1,30.07,SW,230,0.0,0.0,90,0.00,,,0.00,WeatherTracker,2013-05-12 08:04:00,
2013-05-12 01:09:00,54.0,51.1,30.07,SW,230,0.0,0.0,90,0.00,,,0.00,WeatherTracker,2013-05-12 08:09:00,
2013-05-12 01:14:00,53.9,51.0,30.06,SW,230,0.0,0.0,90,0.00,,,0.00,WeatherTracker,2013-05-12 08:14:00,
2013-05-12 01:19:00,53.8,51.2,30.06,SW,230,0.0,0.0,91,0.00,,,0.00,WeatherTracker,2013-05-12 08:19:00,
2013-05-12 01:24:00,53.9,51.3,30.06,SW,230,0.0,0.0,91,0.00,,,0.00,WeatherTracker,2013-05-12 08:24:00,
2013-05-12 01:29:00,53.9,51.3,30.07,SW,230,0.0,0.0,91,0.00,,,0.00,WeatherTracker,2013-05-12 08:29:00,
2013-05-12 01:34:00,54.0,51.4,30.07,SW,236,0.0,0.0,91,0.00,,,0.00,WeatherTracker,2013-05-12 08:34:00,
2013-05-12 01:39:00,54.1,51.5,30.07,WSW,245,0.0,0.0,91,0.00,,,0.00,WeatherTracker,2013-05-12 08:39:00,
2013-05-12 01:44:00,54.1,51.5,30.06,WSW,242,0.0,0.0,91,0.00,,,0.00,WeatherTracker,2013-05-12 08:44:00,
2013-05-12 01:49:00,53.9,51.3,30.06,WSW,242,0.0,0.0,91,0.00,,,0.00,WeatherTracker,2013-05-12 08:49:00,
2013-05-12 01:54:00,53.8,51.2,30.06,WSW,242,0.0,0.0,91,0.00,,,0.00,WeatherTracker,2013-05-12 08:54:00,
2013-05-12 01:59:00,53.7,51.1,30.05,WSW,242,0.0,0.0,91,0.00,,,0.00,WeatherTracker,2013-05-12 08:59:00,
2013-05-12 02:04:00,53.6,51.0,30.05,WSW,242,0.0,0.0,91,0.00,,,0.00,WeatherTracker,2013-05-12 09:04:00,
2013-05-12 02:09:00,53.5,50.9,30.05,WSW,242,0.0,0.0,91,0.00,,,0.00,WeatherTracker,2013-05-12 09:09:00,
2013-05-12 02:14:00,53.3,50.7,30.05,WSW,242,0.0,0.0,91,0.00,,,0.00,WeatherTracker,2013-05-12 09:14:00,
2013-05-12 02:19:00,53.4,50.8,30.05,WSW,242,0.0,0.0,91,0.00,,,0.00,WeatherTracker,2013-05-12 09:19:00,
2013-05-12 02:25:00,53.4,50.8,30.05,WSW,242,0.0,0.0,91,0.00,,,0.00,WeatherTracker,2013-05-12 09:25:00,
2013-05-12 02:30:00,53.6,51.0,30.05,WSW,242,0.0,0.0,91,0.00,,,0.00,WeatherTracker,2013-05-12 09:30:00,
2013-05-12 02:35:00,53.8,51.2,30.05,WSW,242,0.0,0.0,91,0.00,,,0.00,WeatherTracker,2013-05-12 09:35:00,
2013-05-12 02:40:00,54.0,51.4,30.05,WSW,242,0.0,0.0,91,0.00,,,0.00,WeatherTracker,2013-05-12 09:40:00,
2013-05-12 02:45:00,54.0,51.4,30.05,SW,219,0.0,0.0,91,0.00,,,0.00,WeatherTracker,2013-05-12 09:45:00,
2013-05-12 02:50:00,54.2,51.6,30.05,SSW,207,0.0,0.0,91,0.00,,,0.00,WeatherTracker,2013-05-12 09:50:00,
2013-05-12 02:55:00,54.2,51.6,30.05,SSW,207,0.0,0.0,91,0.00,,,0.00,WeatherTracker,2013-05-12 09:55:00,
2013-05-12 03:00:00,54.0,51.4,30.05,ESE,118,0.0,0.0,91,0.00,,,0.00,WeatherTracker,2013-05-12 10:00:00,
2013-05-12 03:05:00,53.9,51.3,30.05,East,101,0.0,0.0,91,0.00,,,0.00,WeatherTracker,2013-05-12 10:05:00,
2013-05-12 03:10:00,53.8,51.2,30.05,East,101,0.0,0.0,91,0.00,,,0.00,WeatherTracker,2013-05-12 10:10:00,
2013-05-12 03:15:00,53.7,51.1,30.05,East,101,0.0,0.0,91,0.00,,,0.00,WeatherTracker,2013-05-12 10:15:00,
2013-05-12 03:20:00,53.7,51.1,30.05,East,100,0.0,0.0,91,0.00,,,0.00,WeatherTracker,2013-05-12 10:20:00,
2013-05-12 03:25:00,53.9,51.6,30.05,SSE,161,0.0,0.0,92,0.00,,,0.00,WeatherTracker,2013-05-12 10:25:00,
2013-05-12 03:30:00,54.0,51.7,30.05,SSE,165,0.0,0.0,92,0.00,,,0.00,WeatherTracker,2013-05-12 10:30:00,
2013-05-12 03:35:00,54.0,51.7,30.05,WSW,240,0.0,0.0,92,0.00,,,0.00,WeatherTracker,2013-05-12 10:35:00,
2013-05-12 03:40:00,54.2,51.9,30.05,WSW,241,0.0,0.0,92,0.00,,,0.00,WeatherTracker,2013-05-12 10:40:00,
2013-05-12 03:45:00,54.2,51.9,30.05,WSW,241,0.0,0.0,92,0.00,,,0.00,WeatherTracker,2013-05-12 10:45:00,
2013-05-12 03:50:00,54.1,51.8,30.05,WSW,240,0.0,0.0,92,0.00,,,0.00,WeatherTracker,2013-05-12 10:50:00,
2013-05-12 03:56:00,53.9,51.6,30.05,WSW,240,0.0,0.0,92,0.00,,,0.00,WeatherTracker,2013-05-12 10:56:00,
2013-05-12 04:01:00,53.8,51.5,30.05,WSW,241,0.0,0.0,92,0.00,,,0.00,WeatherTracker,2013-05-12 11:01:00,
2013-05-12 04:06:00,53.7,51.4,30.05,WSW,242,0.0,0.0,92,0.00,,,0.00,WeatherTracker,2013-05-12 11:06:00,
2013-05-12 04:11:00,53.6,51.3,30.05,West,262,0.0,0.0,92,0.00,,,0.00,WeatherTracker,2013-05-12 11:11:00,
2013-05-12 04:16:00,53.6,51.3,30.05,West,266,0.0,0.0,92,0.00,,,0.00,WeatherTracker,2013-05-12 11:16:00,
2013-05-12 04:21:00,53.5,51.2,30.05,West,265,0.0,0.0,92,0.00,,,0.00,WeatherTracker,2013-05-12 11:21:00,
2013-05-12 04:26:00,53.6,51.3,30.05,West,266,0.0,0.0,92,0.00,,,0.00,WeatherTracker,2013-05-12 11:26:00,
2013-05-12 04:31:00,53.5,51.2,30.05,West,265,0.0,0.0,92,0.00,,,0.00,WeatherTracker,2013-05-12 11:31:00,
2013-05-12 04:36:00,53.5,51.2,30.05,West,265,0.0,0.0,92,0.00,,,0.00,WeatherTracker,2013-05-12 11:36:00,
2013-05-12 04:41:00,53.4,51.1,30.05,West,266,0.0,0.0,92,0.00,,,0.00,WeatherTracker,2013-05-12 11:41:00,
2013-05-12 04:46:00,53.4,51.1,30.05,West,265,0.0,0.0,92,0.00,,,0.00,WeatherTracker,2013-05-12 11:46:00,
2013-05-12 04:51:00,53.5,51.5,30.05,West,266,0.0,0.0,93,0.00,,,0.00,WeatherTracker,2013-05-12 11:51:00,
2013-05-12 04:56:00,53.4,51.4,30.05,West,265,0.0,0.0,93,0.00,,,0.00,WeatherTracker,2013-05-12 11:56:00,
2013-05-12 05:01:00,53.5,51.5,30.05,West,266,0.0,0.0,93,0.00,,,0.00,WeatherTracker,2013-05-12 12:01:00,
2013-05-12 05:06:00,53.5,51.5,30.05,West,266,0.0,0.0,93,0.00,,,0.00,WeatherTracker,2013-05-12 12:06:00,
2013-05-12 05:11:00,53.4,51.4,30.05,West,265,0.0,0.0,93,0.00,,,0.00,WeatherTracker,2013-05-12 12:11:00,
2013-05-12 05:16:00,53.3,51.3,30.05,West,266,0.0,0.0,93,0.00,,,0.00,WeatherTracker,2013-05-12 12:16:00,
2013-05-12 05:21:00,53.3,51.3,30.05,West,266,0.0,0.0,93,0.00,,,0.00,WeatherTracker,2013-05-12 12:21:00,
2013-05-12 05:26:00,53.3,51.3,30.05,West,265,0.0,0.0,93,0.00,,,0.00,WeatherTracker,2013-05-12 12:26:00,
2013-05-12 05:31:00,53.3,51.3,30.05,West,265,0.0,0.0,93,0.00,,,0.00,WeatherTracker,2013-05-12 12:31:00,
2013-05-12 05:36:00,53.4,51.4,30.05,West,266,0.0,0.0,93,0.00,,,0.00,WeatherTracker,2013-05-12 12:36:00,
2013-05-12 05:41:00,53.5,51.5,30.05,West,266,0.0,0.0,93,0.00,,,0.00,WeatherTracker,2013-05-12 12:41:00,
2013-05-12 05:46:00,53.4,51.4,30.05,West,266,0.0,0.0,93,0.00,,,0.00,WeatherTracker,2013-05-12 12:46:00,
2013-05-12 05:51:00,53.4,51.4,30.05,West,266,0.0,0.0,93,0.00,,,0.00,WeatherTracker,2013-05-12 12:51:00,
2013-05-12 05:56:00,53.3,51.3,30.05,West,266,0.0,0.0,93,0.00,,,0.00,WeatherTracker,2013-05-12 12:56:00,
2013-05-12 06:01:00,53.3,51.3,30.06,West,266,0.0,0.0,93,0.00,,,0.00,WeatherTracker,2013-05-12 13:01:00,
2013-05-12 06:06:00,53.4,51.4,30.06,West,266,0.0,0.0,93,0.00,,,0.00,WeatherTracker,2013-05-12 13:06:00,
2013-05-12 06:12:00,53.6,51.6,30.06,West,266,0.0,0.0,93,0.00,,,0.00,WeatherTracker,2013-05-12 13:12:00,
2013-05-12 06:17:00,53.6,51.6,30.07,West,265,0.0,0.0,93,0.00,,,0.00,WeatherTracker,2013-05-12 13:17:00,
2013-05-12 06:22:00,53.8,51.8,30.07,West,266,0.0,0.0,93,0.00,,,0.00,WeatherTracker,2013-05-12 13:22:00,
2013-05-12 06:27:00,53.9,51.9,30.07,West,265,0.0,0.0,93,0.00,,,0.00,WeatherTracker,2013-05-12 13:27:00,
2013-05-12 06:32:00,54.1,52.4,30.07,ESE,117,0.0,0.0,94,0.00,,,0.00,WeatherTracker,2013-05-12 13:32:00,
2013-05-12 06:37:00,54.2,52.5,30.07,ESE,117,0.0,0.0,94,0.00,,,0.00,WeatherTracker,2013-05-12 13:37:00,
2013-05-12 06:42:00,54.1,52.4,30.07,ESE,117,0.0,0.0,94,0.00,,,0.00,WeatherTracker,2013-05-12 13:42:00,
2013-05-12 06:47:00,54.1,52.4,30.07,ESE,117,0.0,0.0,94,0.00,,,0.00,WeatherTracker,2013-05-12 13:47:00,
2013-05-12 06:52:00,54.1,52.4,30.07,ESE,117,0.0,0.0,94,0.00,,,0.00,WeatherTracker,2013-05-12 13:52:00,
2013-05-12 06:57:00,54.1,52.4,30.07,ESE,117,0.0,0.0,94,0.00,,,0.00,WeatherTracker,2013-05-12 13:57:00,
2013-05-12 07:02:00,54.1,52.4,30.07,ESE,117,0.0,0.0,94,0.00,,,0.00,WeatherTracker,2013-05-12 14:02:00,
2013-05-12 07:07:00,54.1,52.4,30.07,SE,126,0.0,0.0,94,0.00,,,0.00,WeatherTracker,2013-05-12 14:07:00,
2013-05-12 07:12:00,53.9,51.9,30.07,SSE,163,0.0,0.0,93,0.00,,,0.00,WeatherTracker,2013-05-12 14:12:00,
2013-05-12 07:17:00,53.7,52.0,30.07,SSE,163,0.0,0.0,94,0.00,,,0.00,WeatherTracker,2013-05-12 14:17:00,
2013-05-12 07:22:00,53.7,52.0,30.07,SSE,163,0.0,0.0,94,0.00,,,0.00,WeatherTracker,2013-05-12 14:22:00,
2013-05-12 07:27:00,53.7,52.0,30.07,SSE,163,0.0,0.0,94,0.00,,,0.00,WeatherTracker,2013-05-12 14:27:00,
2013-05-12 07:32:00,53.7,52.0,30.08,SSE,163,0.0,0.0,94,0.00,,,0.00,WeatherTracker,2013-05-12 14:32:00,
2013-05-12 07:37:00,53.7,52.0,30.08,SSE,163,0.0,0.0,94,0.00,,,0.00,WeatherTracker,2013-05-12 14:37:00,
2013-05-12 07:42:00,53.8,52.1,30.08,SSE,163,0.0,0.0,94,0.00,,,0.00,WeatherTracker,2013-05-12 14:42:00,
2013-05-12 07:47:00,54.0,52.3,30.08,SSE,163,0.0,0.0,94,0.00,,,0.00,WeatherTracker,2013-05-12 14:47:00,
2013-05-12 07:52:00,54.2,52.5,30.08,SSE,163,0.0,0.0,94,0.00,,,0.00,WeatherTracker,2013-05-12 14:52:00,
2013-05-12 07:57:00,54.3,52.6,30.08,SSE,163,0.0,0.0,94,0.00,,,0.00,WeatherTracker,2013-05-12 14:57:00,
2013-05-12 08:03:00,54.4,52.7,30.08,East,88,0.0,0.0,94,0.00,,,0.00,WeatherTracker,2013-05-12 15:03:00,
2013-05-12 08:08:00,54.7,53.0,30.08,East,88,0.0,0.0,94,0.00,,,0.00,WeatherTracker,2013-05-12 15:08:00,
2013-05-12 08:13:00,54.6,52.9,30.08,East,89,0.0,0.0,94,0.00,,,0.00,WeatherTracker,2013-05-12 15:13:00,
2013-05-12 08:18:00,54.8,53.1,30.08,East,88,0.0,0.0,94,0.00,,,0.00,WeatherTracker,2013-05-12 15:18:00,
2013-05-12 08:23:00,54.9,53.2,30.08,ENE,66,0.0,0.0,94,0.00,,,0.00,WeatherTracker,2013-05-12 15:23:00,
2013-05-12 08:28:00,55.2,53.5,30.08,ENE,71,0.0,0.0,94,0.00,,,0.00,WeatherTracker,2013-05-12 15:28:00,
2013-05-12 08:33:00,55.1,53.4,30.09,ESE,118,0.0,0.0,94,0.00,,,0.00,WeatherTracker,2013-05-12 15:33:00,
2013-05-12 08:38:00,54.8,53.1,30.09,ESE,119,0.0,0.0,94,0.00,,,0.00,WeatherTracker,2013-05-12 15:38:00,
2013-05-12 08:43:00,54.6,52.9,30.09,ESE,119,0.0,0.0,94,0.00,,,0.00,WeatherTracker,2013-05-12 15:43:00,
2013-05-12 08:48:00,54.7,53.0,30.09,ESE,119,0.0,0.0,94,0.00,,,0.00,WeatherTracker,2013-05-12 15:48:00,
2013-05-12 08:53:00,55.0,53.3,30.09,ESE,119,0.0,0.0,94,0.00,,,0.00,WeatherTracker,2013-05-12 15:53:00,
2013-05-12 08:58:00,55.1,53.4,30.09,ESE,119,0.0,0.0,94,0.00,,,0.00,WeatherTracker,2013-05-12 15:58:00,
2013-05-12 09:03:00,55.5,53.8,30.09,ESE,119,0.0,0.0,94,0.00,,,0.00,WeatherTracker,2013-05-12 16:03:00,
2013-05-12 09:08:00,55.5,53.8,30.09,ESE,119,0.0,0.0,94,0.00,,,0.00,WeatherTracker,2013-05-12 16:08:00,
2013-05-12 09:13:00,55.4,53.7,30.09,ESE,119,0.0,0.0,94,0.00,,,0.00,WeatherTracker,2013-05-12 16:13:00,
2013-05-12 09:18:00,55.5,53.8,30.09,ESE,120,0.0,0.0,94,0.00,,,0.00,WeatherTracker,2013-05-12 16:18:00,
2013-05-12 09:24:00,55.6,53.6,30.09,ESE,120,0.0,0.0,93,0.00,,,0.00,WeatherTracker,2013-05-12 16:24:00,
2013-05-12 09:29:00,55.9,53.9,30.09,ESE,121,0.0,0.0,93,0.00,,,0.00,WeatherTracker,2013-05-12 16:29:00,
2013-05-12 09:34:00,56.0,54.0,30.09,ESE,121,0.0,0.0,93,0.00,,,0.00,WeatherTracker,2013-05-12 16:34:00,
2013-05-12 09:39:00,56.2,54.2,30.09,ESE,121,0.0,0.0,93,0.00,,,0.00,WeatherTracker,2013-05-12 16:39:00,
2013-05-12 09:44:00,56.5,54.5,30.09,ESE,121,0.0,0.0,93,0.00,,,0.00,WeatherTracker,2013-05-12 16:44:00,
2013-05-12 09:49:00,56.7,54.4,30.09,ESE,121,0.0,0.0,92,0.00,,,0.00,WeatherTracker,2013-05-12 16:49:00,
2013-05-12 09:54:00,57.0,54.7,30.09,SSE,164,0.0,0.0,92,0.00,,,0.00,WeatherTracker,2013-05-12 16:54:00,
2013-05-12 09:59:00,57.2,54.6,30.09,South,171,0.0,0.0,91,0.00,,,0.00,WeatherTracker,2013-05-12 16:59:00,
2013-05-12 10:04:00,57.4,54.8,30.09,South,184,0.0,0.0,91,0.00,,,0.00,WeatherTracker,2013-05-12 17:04:00,
2013-05-12 10:09:00,57.6,54.7,30.09,South,184,0.0,0.0,90,0.00,,,0.00,WeatherTracker,2013-05-12 17:09:00,
2013-05-12 10:14:00,57.9,54.7,30.09,South,184,0.0,0.0,89,0.00,,,0.00,WeatherTracker,2013-05-12 17:14:00,
2013-05-12 10:19:00,57.9,54.7,30.09,South,184,0.0,0.0,89,0.00,,,0.00,WeatherTracker,2013-05-12 17:19:00,
2013-05-12 10:24:00,58.0,54.8,30.09,South,184,0.0,0.0,89,0.00,,,0.00,WeatherTracker,2013-05-12 17:24:00,
2013-05-12 10:29:00,58.1,54.9,30.09,South,185,0.0,0.0,89,0.00,,,0.00,WeatherTracker,2013-05-12 17:29:00,
2013-05-12 10:34:00,58.2,54.7,30.09,South,189,0.0,0.0,88,0.00,,,0.00,WeatherTracker,2013-05-12 17:34:00,
2013-05-12 10:39:00,58.3,54.8,30.09,SSW,207,0.0,0.0,88,0.00,,,0.00,WeatherTracker,2013-05-12 17:39:00,
2013-05-12 10:44:00,58.4,54.9,30.09,SSW,208,0.0,0.0,88,0.00,,,0.00,WeatherTracker,2013-05-12 17:44:00,
2013-05-12 10:49:00,58.8,55.3,30.09,SSW,207,0.0,0.0,88,0.00,,,0.00,WeatherTracker,2013-05-12 17:49:00,
2013-05-12 10:54:00,59.1,55.2,30.09,SSW,207,0.0,0.0,87,0.00,,,0.00,WeatherTracker,2013-05-12 17:54:00,
2013-05-12 10:59:00,59.3,55.4,30.09,SSW,206,0.0,0.0,87,0.00,,,0.00,WeatherTracker,2013-05-12 17:59:00,
2013-05-12 11:04:00,59.6,55.4,30.09,SSW,207,0.0,0.0,86,0.00,,,0.00,WeatherTracker,2013-05-12 18:04:00,
2013-05-12 11:09:00,59.7,55.5,30.09,SSW,207,0.0,0.0,86,0.00,,,0.00,WeatherTracker,2013-05-12 18:09:00,
2013-05-12 11:14:00,59.9,55.4,30.09,SSW,206,0.0,0.0,85,0.00,,,0.00,WeatherTracker,2013-05-12 18:14:00,
2013-05-12 11:19:00,60.0,55.5,30.09,South,183,0.0,0.0,85,0.00,,,0.00,WeatherTracker,2013-05-12 18:19:00,
2013-05-12 11:24:00,60.7,56.2,30.09,South,176,0.0,0.0,85,0.00,,,0.00,WeatherTracker,2013-05-12 18:24:00,
2013-05-12 11:29:00,62.9,58.0,30.09,East,93,0.0,0.0,84,0.00,,,0.00,WeatherTracker,2013-05-12 18:29:00,
2013-05-12 11:34:00,65.4,59.1,30.09,East,83,0.0,0.0,80,0.00,,,0.00,WeatherTracker,2013-05-12 18:34:00,
2013-05-12 11:39:00,66.3,58.5,30.09,East,84,0.0,0.0,76,0.00,,,0.00,WeatherTracker,2013-05-12 18:39:00,
2013-05-12 11:45:00,67.2,58.6,30.09,ENE,74,0.0,0.0,74,0.00,,,0.00,WeatherTracker,2013-05-12 18:45:00,
2013-05-12 11:50:00,68.3,58.9,30.09,ENE,71,0.0,0.0,72,0.00,,,0.00,WeatherTracker,2013-05-12 18:50:00,
2013-05-12 11:55:00,69.2,59.0,30.09,East,84,0.0,0.0,70,0.00,,,0.00,WeatherTracker,2013-05-12 18:55:00,
2013-05-12 12:00:00,68.6,57.6,30.08,East,93,0.0,0.0,68,0.00,,,0.00,WeatherTracker,2013-05-12 19:00:00,
2013-05-12 12:05:00,66.2,56.9,30.08,East,92,0.0,0.0,72,0.00,,,0.00,WeatherTracker,2013-05-12 19:05:00,
2013-05-12 12:10:00,65.2,57.1,30.08,East,96,0.0,0.0,75,0.00,,,0.00,WeatherTracker,2013-05-12 19:10:00,
2013-05-12 12:15:00,64.5,56.8,30.08,ESE,121,0.0,0.0,76,0.00,,,0.00,WeatherTracker,2013-05-12 19:15:00,
2013-05-12 12:20:00,64.2,57.2,30.08,SE,125,0.0,0.0,78,0.00,,,0.00,WeatherTracker,2013-05-12 19:20:00,
2013-05-12 12:25:00,64.4,57.4,30.08,SE,136,0.0,0.0,78,0.00,,,0.00,WeatherTracker,2013-05-12 19:25:00,
2013-05-12 12:30:00,64.7,57.7,30.07,SSE,150,0.0,0.0,78,0.00,,,0.00,WeatherTracker,2013-05-12 19:30:00,
2013-05-12 12:35:00,64.9,57.9,30.07,South,178,0.0,0.0,78,0.00,,,0.00,WeatherTracker,2013-05-12 19:35:00,
2013-05-12 12:40:00,65.0,57.6,30.07,South,182,0.0,0.0,77,0.00,,,0.00,WeatherTracker,2013-05-12 19:40:00,
2013-05-12 12:45:00,65.1,58.1,30.07,West,261,0.0,0.0,78,0.00,,,0.00,WeatherTracker,2013-05-12 19:45:00,
2013-05-12 12:50:00,65.3,57.9,30.07,WSW,258,0.0,0.0,77,0.00,,,0.00,WeatherTracker,2013-05-12 19:50:00,
2013-05-12 12:55:00,65.2,57.8,30.07,West,259,0.0,0.0,77,0.00,,,0.00,WeatherTracker,2013-05-12 19:55:00,
2013-05-12 13:00:00,65.3,57.9,30.07,West,260,0.0,0.0,77,0.00,,,0.00,WeatherTracker,2013-05-12 20:00:00,
2013-05-12 13:05:00,65.7,58.3,30.07,West,261,0.0,0.0,77,0.00,,,0.00,WeatherTracker,2013-05-12 20:05:00,
2013-05-12 13:11:00,66.2,58.4,30.07,SSW,198,0.0,0.0,76,0.00,,,0.00,WeatherTracker,2013-05-12 20:11:00,
2013-05-12 13:16:00,64.8,57.4,30.07,SSW,211,0.0,0.0,77,0.00,,,0.00,WeatherTracker,2013-05-12 20:16:00,
2013-05-12 13:21:00,64.7,57.3,30.07,SSW,213,0.0,0.0,77,0.00,,,0.00,WeatherTracker,2013-05-12 20:21:00,
2013-05-12 13:26:00,65.2,58.2,30.07,SSW,213,0.0,0.0,78,0.00,,,0.00,WeatherTracker,2013-05-12 20:26:00,
2013-05-12 13:31:00,65.6,58.2,30.07,WSW,246,0.0,0.0,77,0.00,,,0.00,WeatherTracker,2013-05-12 20:31:00,
2013-05-12 13:36:00,66.1,58.3,30.07,WSW,240,0.0,0.0,76,0.00,,,0.00,WeatherTracker,2013-05-12 20:36:00,
2013-05-12 13:41:00,66.1,57.9,30.07,SSW,198,0.0,0.0,75,0.00,,,0.00,WeatherTracker,2013-05-12 20:41:00,
2013-05-12 13:46:00,65.9,58.1,30.06,SSW,203,0.0,0.0,76,0.00,,,0.00,WeatherTracker,2013-05-12 20:46:00,
2013-05-12 13:51:00,65.7,57.9,30.06,SW,222,0.0,0.0,76,0.00,,,0.00,WeatherTracker,2013-05-12 20:51:00,
2013-05-12 13:56:00,66.1,58.3,30.06,SW,235,0.0,0.0,76,0.00,,,0.00,WeatherTracker,2013-05-12 20:56:00,
2013-05-12 14:01:00,66.7,58.5,30.06,SSW,198,0.0,0.0,75,0.00,,,0.00,WeatherTracker,2013-05-12 21:01:00,
2013-05-12 14:06:00,66.9,58.7,30.06,South,187,0.0,0.0,75,0.00,,,0.00,WeatherTracker,2013-05-12 21:06:00,
2013-05-12 14:11:00,67.1,58.9,30.06,ESE,112,0.0,0.0,75,0.00,,,0.00,WeatherTracker,2013-05-12 21:11:00,
2013-05-12 14:16:00,67.4,58.8,30.05,South,176,0.0,0.0,74,0.00,,,0.00,WeatherTracker,2013-05-12 21:16:00,
2013-05-12 14:21:00,67.8,58.8,30.05,South,176,0.0,0.0,73,0.00,,,0.00,WeatherTracker,2013-05-12 21:21:00,
2013-05-12 14:26:00,68.0,59.0,30.05,South,178,0.0,0.0,73,0.00,,,0.00,WeatherTracker,2013-05-12 21:26:00,
2013-05-12 14:31:00,67.8,58.8,30.05,SSE,161,0.0,0.0,73,0.00,,,0.00,WeatherTracker,2013-05-12 21:31:00,
2013-05-12 14:36:00,67.8,59.2,30.05,SSE,164,0.0,0.0,74,0.00,,,0.00,WeatherTracker,2013-05-12 21:36:00,
2013-05-12 14:41:00,68.1,59.1,30.05,WSW,240,0.0,0.0,73,0.00,,,0.00,WeatherTracker,2013-05-12 21:41:00,
2013-05-12 14:46:00,68.5,59.5,30.04,SW,220,0.0,0.0,73,0.00,,,0.00,WeatherTracker,2013-05-12 21:46:00,
2013-05-12 14:51:00,68.8,59.4,30.04,SW,215,0.0,0.0,72,0.00,,,0.00,WeatherTracker,2013-05-12 21:51:00,
2013-05-12 14:56:00,69.1,59.3,30.04,SW,215,0.0,0.0,71,0.00,,,0.00,WeatherTracker,2013-05-12 21:56:00,
2013-05-12 15:01:00,69.3,59.5,30.04,SE,129,0.0,0.0,71,0.00,,,0.00,WeatherTracker,2013-05-12 22:01:00,
2013-05-12 15:06:00,69.0,59.2,30.04,SSE,161,0.0,0.0,71,0.00,,,0.00,WeatherTracker,2013-05-12 22:06:00,
2013-05-12 15:12:00,69.0,59.2,30.04,SW,223,0.0,0.0,71,0.00,,,0.00,WeatherTracker,2013-05-12 22:12:00,
2013-05-12 15:17:00,68.6,58.8,30.03,SW,225,0.0,0.0,71,0.00,,,0.00,WeatherTracker,2013-05-12 22:17:00,
2013-05-12 15:22:00,68.4,58.6,30.03,SW,225,0.0,0.0,71,0.00,,,0.00,WeatherTracker,2013-05-12 22:22:00,
2013-05-12 15:27:00,68.5,58.7,30.03,SE,136,0.0,0.0,71,0.00,,,0.00,WeatherTracker,2013-05-12 22:27:00,
2013-05-12 15:32:00,68.3,58.5,30.02,SSE,167,0.0,0.0,71,0.00,,,0.00,WeatherTracker,2013-05-12 22:32:00,
2013-05-12 15:37:00,68.0,58.2,30.02,South,175,0.0,0.0,71,0.00,,,0.00,WeatherTracker,2013-05-12 22:37:00,
2013-05-12 15:42:00,67.7,57.9,30.02,SSW,192,0.0,0.0,71,0.00,,,0.00,WeatherTracker,2013-05-12 22:42:00,
2013-05-12 15:47:00,67.0,57.3,30.02,SSW,210,0.0,0.0,71,0.00,,,0.00,WeatherTracker,2013-05-12 22:47:00,
2013-05-12 15:52:00,66.8,57.5,30.02,SSW,198,0.0,0.0,72,0.00,,,0.00,WeatherTracker,2013-05-12 22:52:00,
2013-05-12 15:57:00,67.3,58.0,30.02,SW,230,0.0,0.0,72,0.00,,,0.00,WeatherTracker,2013-05-12 22:57:00,
2013-05-12 16:02:00,67.4,57.3,30.01,SW,230,0.0,0.0,70,0.00,,,0.00,WeatherTracker,2013-05-12 23:02:00,
2013-05-12 16:07:00,67.0,57.3,30.01,SW,221,0.0,0.0,71,0.00,,,0.00,WeatherTracker,2013-05-12 23:07:00,
2013-05-12 16:12:00,67.2,57.5,30.01,SW,223,0.0,0.0,71,0.00,,,0.00,WeatherTracker,2013-05-12 23:12:00,
2013-05-12 16:17:00,67.2,57.9,30.01,SW,225,0.0,0.0,72,0.00,,,0.00,WeatherTracker,2013-05-12 23:17:00,
2013-05-12 16:22:00,68.0,57.8,30.01,ESE,106,0.0,0.0,70,0.00,,,0.00,WeatherTracker,2013-05-12 23:22:00,
2013-05-12 16:27:00,69.2,58.2,30.01,ESE,120,0.0,0.0,68,0.00,,,0.00,WeatherTracker,2013-05-12 23:27:00,
2013-05-12 16:32:00,68.6,57.6,30.01,SSW,203,0.0,0.0,68,0.00,,,0.00,WeatherTracker,2013-05-12 23:32:00,
2013-05-12 16:37:00,68.8,58.2,30.01,NE,48,0.0,0.0,69,0.00,,,0.00,WeatherTracker,2013-05-12 23:37:00,
2013-05-12 16:42:00,69.0,58.4,30.01,ESE,108,0.0,0.0,69,0.00,,,0.00,WeatherTracker,2013-05-12 23:42:00,
2013-05-12 16:47:00,68.5,57.9,30.00,SE,129,0.0,0.0,69,0.00,,,0.00,WeatherTracker,2013-05-12 23:47:00,
2013-05-12 16:52:00,68.0,57.4,30.00,SE,138,0.0,0.0,69,0.00,,,0.00,WeatherTracker,2013-05-12 23:52:00,
2013-05-12 16:58:00,67.4,56.9,30.00,SW,214,0.0,0.0,69,0.00,,,0.00,WeatherTracker,2013-05-12 23:58:00,
2013-05-12 17:03:00,66.0,55.9,30.00,WSW,238,0.0,0.0,70,0.00,,,0.00,WeatherTracker,2013-05-13 00:03:00,
2013-05-12 17:08:00,65.6,55.9,30.00,SW,226,0.0,0.0,71,0.00,,,0.00,WeatherTracker,2013-05-13 00:08:00,
2013-05-12 17:13:00,66.0,55.9,30.00,SW,215,0.0,0.0,70,0.00,,,0.00,WeatherTracker,2013-05-13 00:13:00,
2013-05-12 17:18:00,65.6,55.5,30.00,WSW,256,0.0,0.0,70,0.00,,,0.00,WeatherTracker,2013-05-13 00:18:00,
2013-05-12 17:23:00,66.2,55.7,30.00,WSW,246,0.0,0.0,69,0.00,,,0.00,WeatherTracker,2013-05-13 00:23:00,
2013-05-12 17:28:00,66.1,55.6,30.00,South,177,0.0,0.0,69,0.00,,,0.00,WeatherTracker,2013-05-13 00:28:00,
2013-05-12 17:33:00,66.2,55.3,29.99,South,177,0.0,0.0,68,0.00,,,0.00,WeatherTracker,2013-05-13 00:33:00,
2013-05-12 17:38:00,66.4,55.9,29.99,South,190,0.0,0.0,69,0.00,,,0.00,WeatherTracker,2013-05-13 00:38:00,
2013-05-12 17:43:00,66.7,56.2,29.99,South,190,0.0,0.0,69,0.00,,,0.00,WeatherTracker,2013-05-13 00:43:00,
2013-05-12 17:48:00,66.6,55.7,29.99,South,190,0.0,0.0,68,0.00,,,0.00,WeatherTracker,2013-05-13 00:48:00,
2013-05-12 17:53:00,66.6,55.7,29.99,South,190,0.0,0.0,68,0.00,,,0.00,WeatherTracker,2013-05-13 00:53:00,
2013-05-12 17:58:00,66.4,55.9,29.99,South,188,0.0,0.0,69,0.00,,,0.00,WeatherTracker,2013-05-13 00:58:00,
2013-05-12 18:03:00,66.3,55.8,29.99,South,188,0.0,0.0,69,0.00,,,0.00,WeatherTracker,2013-05-13 01:03:00,
2013-05-12 18:08:00,66.1,55.6,29.99,South,188,0.0,0.0,69,0.00,,,0.00,WeatherTracker,2013-05-13 01:08:00,
2013-05-12 18:13:00,66.1,55.2,29.99,South,188,0.0,0.0,68,0.00,,,0.00,WeatherTracker,2013-05-13 01:13:00,
2013-05-12 18:18:00,66.3,55.4,29.98,South,188,0.0,0.0,68,0.00,,,0.00,WeatherTracker,2013-05-13 01:18:00,
2013-05-12 18:23:00,66.4,55.9,29.98,South,188,0.0,0.0,69,0.00,,,0.00,WeatherTracker,2013-05-13 01:23:00,
2013-05-12 18:28:00,66.3,55.4,29.98,South,188,0.0,0.0,68,0.00,,,0.00,WeatherTracker,2013-05-13 01:28:00,
2013-05-12 18:34:00,66.2,55.3,29.98,South,188,0.0,0.0,68,0.00,,,0.00,WeatherTracker,2013-05-13 01:34:00,
2013-05-12 18:39:00,66.2,54.9,29.98,South,188,0.0,0.0,67,0.00,,,0.00,WeatherTracker,2013-05-13 01:39:00,
2013-05-12 18:44:00,66.1,55.6,29.98,South,188,0.0,0.0,69,0.00,,,0.00,WeatherTracker,2013-05-13 01:44:00,
2013-05-12 18:49:00,65.6,55.5,29.98,South,188,0.0,0.0,70,0.00,,,0.00,WeatherTracker,2013-05-13 01:49:00,
2013-05-12 18:54:00,65.3,56.0,29.98,South,188,0.0,0.0,72,0.00,,,0.00,WeatherTracker,2013-05-13 01:54:00,
2013-05-12 18:59:00,65.2,55.2,29.98,South,188,0.0,0.0,70,0.00,,,0.00,WeatherTracker,2013-05-13 01:59:00,
2013-05-12 19:04:00,65.4,55.0,29.98,South,188,0.0,0.0,69,0.00,,,0.00,WeatherTracker,2013-05-13 02:04:00,
2013-05-12 19:09:00,66.2,55.3,29.98,South,188,0.0,0.0,68,0.00,,,0.00,WeatherTracker,2013-05-13 02:09:00,
2013-05-12 19:14:00,67.0,57.7,29.98,South,188,0.0,0.0,72,0.00,,,0.00,WeatherTracker,2013-05-13 02:14:00,
2013-05-12 19:19:00,67.1,57.8,29.98,South,188,0.0,0.0,72,0.00,,,0.00,WeatherTracker,2013-05-13 02:19:00,
2013-05-12 19:24:00,67.1,56.6,29.98,South,188,0.0,0.0,69,0.00,,,0.00,WeatherTracker,2013-05-13 02:24:00,
2013-05-12 19:29:00,65.6,56.3,29.98,South,188,0.0,0.0,72,0.00,,,0.00,WeatherTracker,2013-05-13 02:29:00,
2013-05-12 19:34:00,64.1,56.4,29.98,South,188,0.0,0.0,76,0.00,,,0.00,WeatherTracker,2013-05-13 02:34:00,
2013-05-12 19:39:00,62.9,55.9,29.98,South,188,0.0,0.0,78,0.00,,,0.00,WeatherTracker,2013-05-13 02:39:00,
2013-05-12 19:44:00,62.3,56.0,29.97,South,188,0.0,0.0,80,0.00,,,0.00,WeatherTracker,2013-05-13 02:44:00,
2013-05-12 19:49:00,62.1,56.2,29.97,South,188,0.0,0.0,81,0.00,,,0.00,WeatherTracker,2013-05-13 02:49:00,
2013-05-12 19:54:00,62.1,56.5,29.97,South,188,0.0,0.0,82,0.00,,,0.00,WeatherTracker,2013-05-13 02:54:00,
2013-05-12 19:59:00,62.0,56.8,29.97,South,188,0.0,0.0,83,0.00,,,0.00,WeatherTracker,2013-05-13 02:59:00,
2013-05-12 20:04:00,61.9,56.3,29.97,South,188,0.0,0.0,82,0.00,,,0.00,WeatherTracker,2013-05-13 03:04:00,
2013-05-12 20:09:00,62.1,56.2,29.97,South,188,0.0,0.0,81,0.00,,,0.00,WeatherTracker,2013-05-13 03:09:00,
2013-05-12 20:14:00,62.2,56.3,29.97,South,188,0.0,0.0,81,0.00,,,0.00,WeatherTracker,2013-05-13 03:14:00,
2013-05-12 20:19:00,62.2,56.6,29.97,South,188,0.0,0.0,82,0.00,,,0.00,WeatherTracker,2013-05-13 03:19:00,
2013-05-12 20:25:00,61.8,56.2,29.97,South,188,0.0,0.0,82,0.00,,,0.00,WeatherTracker,2013-05-13 03:25:00,
2013-05-12 20:30:00,61.7,56.5,29.97,South,188,0.0,0.0,83,0.00,,,0.00,WeatherTracker,2013-05-13 03:30:00,
2013-05-12 20:35:00,61.6,56.0,29.97,South,184,0.0,0.0,82,0.00,,,0.00,WeatherTracker,2013-05-13 03:35:00,
2013-05-12 20:40:00,61.1,55.9,29.97,ESE,111,0.0,0.0,83,0.00,,,0.00,WeatherTracker,2013-05-13 03:40:00,
2013-05-12 20:45:00,60.4,55.5,29.97,ESE,118,0.0,0.0,84,0.00,,,0.00,WeatherTracker,2013-05-13 03:45:00,
2013-05-12 20:50:00,60.3,55.4,29.97,SE,127,0.0,0.0,84,0.00,,,0.00,WeatherTracker,2013-05-13 03:50:00,
2013-05-12 20:55:00,60.2,55.7,29.97,SE,126,0.0,0.0,85,0.00,,,0.00,WeatherTracker,2013-05-13 03:55:00,
2013-05-12 21:00:00,60.2,56.0,29.98,SE,128,0.0,0.0,86,0.00,,,0.00,WeatherTracker,2013-05-13 04:00:00,
2013-05-12 21:01:00,60.2,56.0,29.98,SE,129,0.0,0.0,86,0.00,,,0.00,WeatherTracker,2013-05-13 04:01:00,
2013-05-12 21:03:00,60.1,55.6,29.98,SE,128,0.0,0.0,85,0.00,,,0.00,WeatherTracker,2013-05-13 04:03:00,
2013-05-12 21:08:00,60.1,55.6,29.98,SE,130,0.0,0.0,85,0.00,,,0.00,WeatherTracker,2013-05-13 04:08:00,
2013-05-12 21:13:00,60.1,55.9,29.98,SE,128,0.0,0.0,86,0.00,,,0.00,WeatherTracker,2013-05-13 04:13:00,
2013-05-12 21:18:00,60.2,56.0,29.98,SE,126,0.0,0.0,86,0.00,,,0.00,WeatherTracker,2013-05-13 04:18:00,
2013-05-12 21:23:00,60.3,56.1,29.98,SE,125,0.0,0.0,86,0.00,,,0.00,WeatherTracker,2013-05-13 04:23:00,
2013-05-12 21:28:00,60.2,56.0,29.98,SE,126,0.0,0.0,86,0.00,,,0.00,WeatherTracker,2013-05-13 04:28:00,
2013-05-12 21:33:00,60.2,56.0,29.98,SE,126,0.0,0.0,86,0.00,,,0.00,WeatherTracker,2013-05-13 04:33:00,
2013-05-12 21:38:00,60.0,55.8,29.98,SE,126,0.0,0.0,86,0.00,,,0.00,WeatherTracker,2013-05-13 04:38:00,
2013-05-12 21:43:00,59.8,55.6,29.98,SE,126,0.0,0.0,86,0.00,,,0.00,WeatherTracker,2013-05-13 04:43:00,
2013-05-12 21:48:00,59.6,55.4,29.98,SE,126,0.0,0.0,86,0.00,,,0.00,WeatherTracker,2013-05-13 04:48:00,
2013-05-12 21:53:00,59.5,55.6,29.98,SE,126,0.0,0.0,87,0.00,,,0.00,WeatherTracker,2013-05-13 04:53:00,
2013-05-12 21:59:00,59.4,55.5,29.98,SE,126,0.0,0.0,87,0.00,,,0.00,WeatherTracker,2013-05-13 04:59:00,
2013-05-12 22:04:00,59.3,55.4,29.98,SE,126,0.0,0.0,87,0.00,,,0.00,WeatherTracker,2013-05-13 05:04:00,
2013-05-12 22:09:00,59.1,55.2,29.98,SE,126,0.0,0.0,87,0.00,,,0.00,WeatherTracker,2013-05-13 05:09:00,
2013-05-12 22:14:00,59.1,55.2,29.99,SE,126,0.0,0.0,87,0.00,,,0.00,WeatherTracker,2013-05-13 05:14:00,
2013-05-12 22:19:00,59.0,55.1,29.99,SE,126,0.0,0.0,87,0.00,,,0.00,WeatherTracker,2013-05-13 05:19:00,
2013-05-12 22:24:00,59.0,55.8,29.99,SE,126,0.0,0.0,89,0.00,,,0.00,WeatherTracker,2013-05-13 05:24:00,
2013-05-12 22:29:00,59.0,55.1,29.99,SE,126,0.0,0.0,87,0.00,,,0.00,WeatherTracker,2013-05-13 05:29:00,
2013-05-12 22:34:00,58.9,54.7,29.99,SE,126,0.0,0.0,86,0.00,,,0.00,WeatherTracker,2013-05-13 05:34:00,
2013-05-12 22:39:00,58.9,54.7,29.99,SE,126,0.0,0.0,86,0.00,,,0.00,WeatherTracker,2013-05-13 05:39:00,
2013-05-12 22:44:00,59.1,54.6,29.99,NE,36,0.0,0.0,85,0.00,,,0.00,WeatherTracker,2013-05-13 05:44:00,
2013-05-12 22:49:00,59.3,54.8,29.99,NNE,18,0.0,0.0,85,0.00,,,0.00,WeatherTracker,2013-05-13 05:49:00,
2013-05-12 22:54:00,59.3,54.1,29.99,NNE,15,0.0,0.0,83,0.00,,,0.00,WeatherTracker,2013-05-13 05:54:00,
2013-05-12 22:59:00,59.2,54.0,29.99,NNE,16,0.0,0.0,83,0.00,,,0.00,WeatherTracker,2013-05-13 05:59:00,
2013-05-12 23:04:00,59.2,54.4,29.99,NNE,17,0.0,0.0,84,0.00,,,0.00,WeatherTracker,2013-05-13 06:04:00,
2013-05-12 23:09:00,59.0,54.2,29.99,NNE,17,0.0,0.0,84,0.00,,,0.00,WeatherTracker,2013-05-13 06:09:00,
2013-05-12 23:14:00,58.7,53.9,29.98,NNE,17,0.0,0.0,84,0.00,,,0.00,WeatherTracker,2013-05-13 06:14:00,
2013-05-12 23:19:00,58.6,53.8,29.98,NNE,17,0.0,0.0,84,0.00,,,0.00,WeatherTracker,2013-05-13 06:19:00,
2013-05-12 23:24:00,58.2,52.7,29.98,NNE,17,0.0,0.0,82,0.00,,,0.00,WeatherTracker,2013-05-13 06:24:00,
2013-05-12 23:29:00,57.8,52.3,29.98,NNE,17,0.0,0.0,82,0.00,,,0.00,WeatherTracker,2013-05-13 06:29:00,
2013-05-12 23:34:00,57.7,52.2,29.98,NNE,17,0.0,0.0,82,0.00,,,0.00,WeatherTracker,2013-05-13 06:34:00,
2013-05-12 23:39:00,57.5,52.0,29.98,NNE,17,0.0,0.0,82,0.00,,,0.00,WeatherTracker,2013-05-13 06:39:00,
2013-05-12 23:44:00,57.5,52.4,29.98,NNE,17,0.0,0.0,83,0.00,,,0.00,WeatherTracker,2013-05-13 06:44:00,
2013-05-12 23:49:00,57.4,52.3,29.98,NNE,17,0.0,0.0,83,0.00,,,0.00,WeatherTracker,2013-05-13 06:49:00,
2013-05-12 23:54:00,57.2,52.1,29.98,West,272,0.0,0.0,83,0.00,,,0.00,WeatherTracker,2013-05-13 06:54:00,